createdAt,value
2022-12-09T00:02:26.354Z,3.47
2022-12-09T00:04:54.953Z,3.33
2022-12-09T00:07:23.522Z,3.27
2022-12-09T00:09:53.027Z,2.93
2022-12-09T00:12:21.435Z,2.40
2022-12-09T00:14:51.231Z,2.50
2022-12-09T00:17:19.731Z,2.40
2022-12-09T00:19:48.336Z,2.33
2022-12-09T00:22:16.703Z,2.23
2022-12-09T00:24:45.096Z,2.60
2022-12-09T00:27:13.476Z,1.90
2022-12-09T00:29:41.740Z,2.27
2022-12-09T00:32:11.557Z,1.83
2022-12-09T00:34:40.078Z,2.70
2022-12-09T00:37:09.767Z,1.90
2022-12-09T00:39:38.135Z,2.00
2022-12-09T00:42:06.520Z,1.90
2022-12-09T00:44:35.096Z,1.83
2022-12-09T00:47:03.668Z,2.10
2022-12-09T00:49:33.650Z,2.13
2022-12-09T00:52:02.176Z,1.67
2022-12-09T00:54:30.862Z,1.97
2022-12-09T00:56:59.176Z,1.90
2022-12-09T00:59:27.623Z,2.10
2022-12-09T01:01:56.211Z,2.40
2022-12-09T01:04:25.563Z,1.97
2022-12-09T01:06:55.562Z,2.03
2022-12-09T01:09:24.324Z,2.00
2022-12-09T01:11:52.799Z,1.70
2022-12-09T01:14:21.266Z,2.20
2022-12-09T01:16:49.882Z,2.17
2022-12-09T01:19:18.815Z,2.27
2022-12-09T01:21:47.265Z,1.70
2022-12-09T01:24:17.193Z,2.33
2022-12-09T01:26:45.700Z,2.40
2022-12-09T01:29:14.254Z,2.27
2022-12-09T01:31:43.551Z,2.20
2022-12-09T01:34:12.217Z,2.03
2022-12-09T01:36:40.798Z,2.30
2022-12-09T01:39:09.294Z,2.00
2022-12-09T01:41:39.363Z,2.13
2022-12-09T01:44:14.214Z,1.83
2022-12-09T01:46:43.260Z,2.43
2022-12-09T01:49:16.150Z,1.90
2022-12-09T01:51:48.183Z,2.10
2022-12-09T01:54:17.436Z,2.17
2022-12-09T01:56:48.201Z,1.73
2022-12-09T01:59:17.847Z,1.80
2022-12-09T02:01:50.016Z,2.10
2022-12-09T02:04:20.088Z,2.00
2022-12-09T02:06:48.829Z,1.60
2022-12-09T02:09:20.045Z,1.70
2022-12-09T02:12:02.623Z,1.27
2022-12-09T02:14:37.710Z,1.70
2022-12-09T02:17:23.461Z,1.60
2022-12-09T02:20:01.894Z,1.27
2022-12-09T02:22:34.115Z,1.80
2022-12-09T02:25:12.787Z,1.30
2022-12-09T02:27:52.489Z,1.43
2022-12-09T02:30:24.071Z,1.00
2022-12-09T02:33:27.730Z,1.10
2022-12-09T02:36:03.310Z,1.03
2022-12-09T02:38:34.612Z,1.00
2022-12-09T02:41:06.960Z,1.10
2022-12-09T02:43:45.176Z,1.10
2022-12-09T02:46:21.039Z,1.00
2022-12-09T02:48:54.458Z,0.70
2022-12-09T02:51:26.794Z,0.97
2022-12-09T02:53:59.262Z,1.03
2022-12-09T02:56:29.530Z,1.00
2022-12-09T02:58:58.021Z,1.20
2022-12-09T03:01:36.637Z,1.10
2022-12-09T03:04:06.779Z,1.37
2022-12-09T03:06:42.055Z,1.10
2022-12-09T03:09:13.478Z,1.23
2022-12-09T03:11:42.678Z,1.23
2022-12-09T03:14:15.198Z,1.20
2022-12-09T03:16:50.710Z,1.20
2022-12-09T03:19:24.073Z,1.30
2022-12-09T03:21:57.942Z,1.20
2022-12-09T03:24:31.356Z,1.20
2022-12-09T03:27:02.268Z,0.90
2022-12-09T03:29:35.258Z,1.10
2022-12-09T03:32:03.769Z,1.50
2022-12-09T03:34:38.083Z,1.20
2022-12-09T03:37:10.900Z,1.37
2022-12-09T03:39:42.472Z,1.10
2022-12-09T03:42:17.360Z,1.33
2022-12-09T03:44:51.903Z,1.37
2022-12-09T03:47:20.622Z,1.43
2022-12-09T03:49:49.522Z,1.00
2022-12-09T03:52:24.512Z,1.43
2022-12-09T03:55:01.036Z,1.50
2022-12-09T03:57:30.470Z,1.53
2022-12-09T04:00:02.281Z,1.30
2022-12-09T04:02:41.102Z,1.17
2022-12-09T04:05:10.525Z,1.00
2022-12-09T04:07:40.555Z,1.27
2022-12-09T04:10:10.548Z,1.17
2022-12-09T04:12:40.292Z,1.00
2022-12-09T04:15:10.277Z,0.93
2022-12-09T04:17:38.915Z,1.00
2022-12-09T04:20:09.259Z,0.80
2022-12-09T04:22:38.385Z,0.70
2022-12-09T04:25:08.820Z,0.80
2022-12-09T04:27:37.656Z,0.83
2022-12-09T04:30:07.952Z,0.83
2022-12-09T04:32:38.220Z,0.70
2022-12-09T04:35:07.316Z,0.70
2022-12-09T04:37:37.543Z,0.87
2022-12-09T04:40:09.199Z,1.03
2022-12-09T04:42:38.468Z,1.50
2022-12-09T04:45:08.364Z,1.00
2022-12-09T04:47:36.981Z,0.60
2022-12-09T04:50:07.411Z,0.60
2022-12-09T04:52:36.787Z,0.40
2022-12-09T04:55:05.616Z,0.50
2022-12-09T04:57:37.658Z,0.50
2022-12-09T05:00:07.565Z,1.00
2022-12-09T05:02:37.534Z,0.80
2022-12-09T05:05:06.860Z,0.80
2022-12-09T05:07:35.743Z,0.90
2022-12-09T05:10:05.155Z,1.40
2022-12-09T05:12:36.071Z,1.40
2022-12-09T05:15:05.222Z,1.20
2022-12-09T05:17:33.729Z,0.93
2022-12-09T05:20:02.229Z,1.30
2022-12-09T05:22:30.481Z,1.20
2022-12-09T05:24:58.879Z,1.53
2022-12-09T05:27:27.621Z,1.20
2022-12-09T05:29:57.699Z,1.20
2022-12-09T05:32:29.276Z,1.20
2022-12-09T05:34:59.158Z,1.30
2022-12-09T05:37:27.574Z,1.53
2022-12-09T05:39:55.977Z,1.13
2022-12-09T05:42:24.278Z,1.40
2022-12-09T05:44:52.599Z,1.30
2022-12-09T05:47:23.350Z,1.40
2022-12-09T05:49:51.864Z,1.30
2022-12-09T05:52:20.592Z,1.30
2022-12-09T05:54:49.319Z,1.00
2022-12-09T05:57:18.445Z,1.50
2022-12-09T05:59:47.038Z,1.50
2022-12-09T06:02:15.647Z,1.60
2022-12-09T06:04:45.719Z,1.53
2022-12-09T06:07:14.364Z,1.97
2022-12-09T06:09:45.009Z,1.70
2022-12-09T06:12:13.572Z,1.70
2022-12-09T06:14:42.106Z,2.47
2022-12-09T06:17:10.527Z,2.00
2022-12-09T06:19:39.419Z,2.03
2022-12-09T06:22:09.580Z,1.80
2022-12-09T06:24:38.300Z,1.90
2022-12-09T06:27:07.656Z,1.70
2022-12-09T06:29:36.113Z,2.83
2022-12-09T06:32:04.828Z,1.43
2022-12-09T06:34:33.540Z,1.50
2022-12-09T06:37:02.162Z,1.30
2022-12-09T06:39:32.094Z,1.43
2022-12-09T06:42:01.237Z,1.70
2022-12-09T06:44:29.728Z,1.73
2022-12-09T06:46:58.403Z,1.53
2022-12-09T06:49:27.120Z,1.50
2022-12-09T06:51:55.787Z,1.50
2022-12-09T06:54:24.292Z,1.67
2022-12-09T06:56:54.447Z,1.70
2022-12-09T06:59:22.952Z,1.10
2022-12-09T07:01:51.665Z,0.97
2022-12-09T07:04:20.519Z,1.27
2022-12-09T07:06:49.086Z,1.30
2022-12-09T07:09:20.930Z,1.13
2022-12-09T07:11:50.299Z,1.20
2022-12-09T07:14:20.721Z,1.27
2022-12-09T07:16:49.207Z,1.50
2022-12-09T07:19:20.081Z,1.60
2022-12-09T07:21:49.492Z,1.30
2022-12-09T07:24:19.301Z,2.30
2022-12-09T07:26:48.843Z,2.33
2022-12-09T07:29:20.270Z,2.67
2022-12-09T07:31:49.519Z,2.70
2022-12-09T07:34:18.568Z,1.90
2022-12-09T07:36:47.414Z,2.27
2022-12-09T07:39:18.025Z,2.00
2022-12-09T07:41:48.630Z,2.20
2022-12-09T07:44:17.506Z,2.00
2022-12-09T07:46:48.712Z,1.80
2022-12-09T07:49:17.470Z,1.87
2022-12-09T07:51:45.995Z,1.40
2022-12-09T07:54:16.385Z,1.60
2022-12-09T07:56:44.958Z,1.30
2022-12-09T07:59:14.678Z,1.10
2022-12-09T08:01:43.771Z,1.20
2022-12-09T08:04:14.369Z,1.00
2022-12-09T08:06:43.497Z,1.00
2022-12-09T08:09:14.181Z,0.80
2022-12-09T08:11:43.564Z,0.80
2022-12-09T08:14:13.577Z,1.00
2022-12-09T08:16:43.518Z,0.83
2022-12-09T08:19:15.523Z,0.80
2022-12-09T08:21:45.569Z,0.90
2022-12-09T08:24:17.180Z,0.80
2022-12-09T08:26:45.867Z,0.80
2022-12-09T08:29:15.282Z,0.60
2022-12-09T08:31:45.326Z,0.80
2022-12-09T08:34:16.186Z,0.57
2022-12-09T08:36:45.285Z,0.60
2022-12-09T08:39:14.847Z,0.60
2022-12-09T08:41:45.480Z,0.57
2022-12-09T08:44:16.258Z,0.50
2022-12-09T08:46:48.367Z,0.53
2022-12-09T08:49:20.318Z,0.50
2022-12-09T08:51:51.728Z,0.50
2022-12-09T08:54:21.542Z,0.63
2022-12-09T08:56:52.210Z,0.33
2022-12-09T08:59:20.868Z,0.33
2022-12-09T09:01:49.643Z,0.30
2022-12-09T09:04:22.983Z,0.40
2022-12-09T09:06:52.955Z,0.20
2022-12-09T09:09:23.271Z,0.27
2022-12-09T09:11:51.957Z,0.30
2022-12-09T09:14:20.314Z,0.50
2022-12-09T09:16:49.126Z,1.23
2022-12-09T09:19:22.584Z,0.60
2022-12-09T09:21:51.686Z,0.80
2022-12-09T09:24:22.920Z,0.40
2022-12-09T09:26:53.246Z,0.90
2022-12-09T09:29:23.797Z,0.80
2022-12-09T09:31:54.876Z,1.10
2022-12-09T09:34:25.999Z,1.10
2022-12-09T09:36:54.916Z,1.53
2022-12-09T09:39:23.442Z,1.30
2022-12-09T09:41:54.478Z,1.60
2022-12-09T09:44:30.435Z,0.80
2022-12-09T09:47:00.285Z,0.93
2022-12-09T09:49:37.610Z,1.03
2022-12-09T09:52:11.024Z,1.47
2022-12-09T09:54:39.511Z,2.60
2022-12-09T09:57:15.799Z,1.97
2022-12-09T10:00:08.751Z,0.60
2022-12-09T10:03:01.455Z,0.47
2022-12-09T10:05:35.752Z,0.40
2022-12-09T10:08:29.137Z,0.70
2022-12-09T10:11:09.162Z,0.33
2022-12-09T10:13:48.478Z,0.40
2022-12-09T10:16:20.294Z,0.50
2022-12-09T10:19:09.248Z,0.60
2022-12-09T10:21:44.395Z,0.60
2022-12-09T10:24:24.215Z,0.57
2022-12-09T10:27:02.994Z,0.77
2022-12-09T10:29:49.241Z,0.80
2022-12-09T10:32:20.662Z,0.80
2022-12-09T10:34:49.705Z,0.60
2022-12-09T10:37:28.328Z,0.40
2022-12-09T10:40:02.308Z,0.40
2022-12-09T10:42:49.969Z,0.50
2022-12-09T10:45:18.923Z,0.40
2022-12-09T10:47:52.398Z,0.47
2022-12-09T10:50:31.715Z,0.40
2022-12-09T10:53:07.685Z,0.40
2022-12-09T10:55:38.294Z,0.30
2022-12-09T10:58:18.410Z,0.40
2022-12-09T11:01:04.412Z,0.50
2022-12-09T11:03:36.294Z,0.50
2022-12-09T11:06:16.516Z,0.40
2022-12-09T11:08:54.446Z,0.30
2022-12-09T11:11:41.205Z,0.67
2022-12-09T11:14:25.663Z,0.50
2022-12-09T11:16:56.294Z,0.60
2022-12-09T11:19:36.859Z,0.60
2022-12-09T11:22:29.277Z,0.60
2022-12-09T11:25:19.401Z,0.60
2022-12-09T11:27:51.532Z,0.60
2022-12-09T11:30:22.489Z,0.60
2022-12-09T11:33:01.383Z,0.60
2022-12-09T11:35:39.188Z,0.70
2022-12-09T11:38:18.788Z,0.63
2022-12-09T11:41:01.283Z,0.80
2022-12-09T11:43:36.445Z,0.93
2022-12-09T11:46:17.695Z,0.50
2022-12-09T11:48:54.364Z,0.60
2022-12-09T11:51:27.465Z,0.50
2022-12-09T11:54:03.708Z,0.50
2022-12-09T11:56:35.964Z,0.73
2022-12-09T11:59:10.483Z,0.60
2022-12-09T12:01:48.306Z,1.00
2022-12-09T12:04:21.275Z,0.60
2022-12-09T12:06:53.642Z,0.63
2022-12-09T12:09:27.253Z,1.60
2022-12-09T12:12:06.218Z,0.80
2022-12-09T12:14:39.365Z,0.50
2022-12-09T12:17:17.995Z,0.70
2022-12-09T12:19:50.544Z,0.70
2022-12-09T12:22:38.111Z,1.20
2022-12-09T12:25:24.631Z,0.60
2022-12-09T12:28:08.637Z,0.70
2022-12-09T12:30:51.244Z,0.47
2022-12-09T12:36:33.359Z,0.80
2022-12-09T12:39:13.831Z,0.60
2022-12-09T12:41:50.879Z,0.40
2022-12-09T12:44:50.232Z,0.70
2022-12-09T12:47:24.217Z,0.60
2022-12-09T12:50:16.224Z,0.40
2022-12-09T12:52:58.021Z,0.50
2022-12-09T12:55:44.745Z,0.40
2022-12-09T12:58:21.525Z,0.60
2022-12-09T13:01:01.364Z,0.93
2022-12-09T13:03:37.704Z,1.10
2022-12-09T13:06:10.248Z,1.30
2022-12-09T13:08:43.692Z,0.87
2022-12-09T13:11:17.254Z,0.73
2022-12-09T13:13:50.879Z,0.50
2022-12-09T13:16:27.931Z,0.53
2022-12-09T13:19:03.743Z,0.50
2022-12-09T13:21:32.065Z,0.53
2022-12-09T13:24:10.159Z,0.47
2022-12-09T13:26:48.857Z,0.53
2022-12-09T13:29:30.332Z,0.70
2022-12-09T13:32:22.773Z,0.70
2022-12-09T13:34:55.239Z,0.50
2022-12-09T13:37:35.008Z,0.50
2022-12-09T13:40:04.665Z,0.60
2022-12-09T13:42:56.521Z,0.50
2022-12-09T13:45:33.868Z,0.50
2022-12-09T13:48:11.916Z,0.60
2022-12-09T13:50:45.870Z,0.53
2022-12-09T13:53:27.251Z,0.50
2022-12-09T13:55:58.178Z,1.00
2022-12-09T13:58:43.460Z,0.70
2022-12-09T14:01:21.806Z,0.47
2022-12-09T14:04:02.789Z,0.57
2022-12-09T14:06:34.629Z,0.83
2022-12-09T14:09:07.906Z,0.53
2022-12-09T14:11:47.577Z,0.30
2022-12-09T14:14:58.412Z,0.40
2022-12-09T14:18:03.929Z,0.93
2022-12-09T14:20:36.941Z,1.17
2022-12-09T14:23:18.567Z,0.90
2022-12-09T14:25:59.433Z,0.70
2022-12-09T14:28:52.891Z,0.50
2022-12-09T14:31:57.857Z,0.60
2022-12-09T14:34:38.200Z,0.97
2022-12-09T14:37:31.902Z,1.90
2022-12-09T14:40:17.138Z,3.23
2022-12-09T14:42:51.862Z,1.77
2022-12-09T14:45:30.658Z,0.60
2022-12-09T14:47:59.272Z,0.70
2022-12-09T14:50:30.063Z,0.60
2022-12-09T14:53:03.039Z,2.00
2022-12-09T14:55:35.179Z,2.10
2022-12-09T14:58:03.766Z,1.10
2022-12-09T15:00:36.426Z,0.80
2022-12-09T15:03:32.119Z,0.67
2022-12-09T15:05:57.039Z,0.60
2022-12-09T15:08:35.331Z,0.50
2022-12-09T15:11:13.183Z,0.80
2022-12-09T15:13:43.866Z,0.80
2022-12-09T15:16:15.048Z,0.50
2022-12-09T15:18:45.711Z,0.60
2022-12-09T15:21:27.327Z,1.63
2022-12-09T15:23:58.087Z,1.03
2022-12-09T15:26:29.517Z,2.07
2022-12-09T15:28:59.526Z,2.90
2022-12-09T15:31:29.948Z,3.37
2022-12-09T15:34:00.609Z,5.80
2022-12-09T15:36:33.208Z,4.90
2022-12-09T15:39:06.916Z,0.80
2022-12-09T15:42:02.649Z,0.80
2022-12-09T15:44:34.627Z,1.80
2022-12-09T15:47:10.155Z,1.27
2022-12-09T15:49:44.515Z,1.70
2022-12-09T15:52:15.198Z,1.43
2022-12-09T15:54:45.929Z,1.50
2022-12-09T15:57:18.366Z,5.20
2022-12-09T15:59:55.709Z,2.07
2022-12-09T16:02:27.805Z,3.30
2022-12-09T16:04:58.748Z,7.63
2022-12-09T16:07:27.334Z,3.83
2022-12-09T16:10:13.431Z,6.63
2022-12-09T16:12:44.936Z,4.60
2022-12-09T16:15:15.391Z,6.17
2022-12-09T16:17:54.564Z,4.30
2022-12-09T16:20:33.910Z,3.47
2022-12-09T16:23:02.903Z,2.83
2022-12-09T16:25:38.988Z,3.83
2022-12-09T16:28:08.204Z,5.53
2022-12-09T16:30:46.950Z,5.53
2022-12-09T16:33:18.811Z,4.60
2022-12-09T16:35:58.031Z,5.20
2022-12-09T16:38:26.768Z,6.30
2022-12-09T16:41:11.001Z,7.10
2022-12-09T16:43:54.628Z,9.50
2022-12-09T16:46:41.370Z,11.60
2022-12-09T16:49:10.233Z,7.50
2022-12-09T16:51:39.638Z,5.57
2022-12-09T16:54:20.024Z,4.77
2022-12-09T16:56:51.457Z,3.53
2022-12-09T16:59:19.736Z,3.83
2022-12-09T17:01:48.247Z,2.53
2022-12-09T17:04:19.323Z,2.70
2022-12-09T17:06:47.599Z,2.20
2022-12-09T17:09:15.858Z,2.30
2022-12-09T17:11:48.725Z,1.93
2022-12-09T17:14:18.793Z,1.83
2022-12-09T17:16:47.116Z,1.60
2022-12-09T17:19:15.557Z,1.40
2022-12-09T17:21:43.985Z,1.20
2022-12-09T17:24:13.908Z,1.30
2022-12-09T17:26:42.184Z,2.10
2022-12-09T17:29:10.488Z,3.90
2022-12-09T17:31:40.225Z,2.60
2022-12-09T17:34:08.695Z,1.50
2022-12-09T17:36:37.015Z,1.30
2022-12-09T17:39:07.522Z,1.10
2022-12-09T17:41:35.742Z,1.00
2022-12-09T17:44:04.014Z,1.07
2022-12-09T17:46:32.367Z,0.80
2022-12-09T17:49:02.519Z,0.77
2022-12-09T17:51:35.633Z,1.70
2022-12-09T17:54:04.714Z,1.80
2022-12-09T17:56:33.190Z,1.30
2022-12-09T17:59:03.784Z,1.10
2022-12-09T18:01:34.200Z,1.23
2022-12-09T18:04:09.634Z,0.93
2022-12-09T18:06:39.234Z,0.90
2022-12-09T18:09:09.809Z,0.83
2022-12-09T18:11:38.488Z,1.00
2022-12-09T18:14:07.513Z,0.90
2022-12-09T18:16:35.898Z,0.80
2022-12-09T18:19:07.154Z,0.97
2022-12-09T18:21:35.808Z,1.00
2022-12-09T18:24:04.225Z,1.63
2022-12-09T18:26:38.165Z,1.43
2022-12-09T18:29:08.146Z,19.37
2022-12-09T18:31:36.777Z,43.43
2022-12-09T18:34:06.466Z,29.80
2022-12-09T18:36:34.708Z,60.83
2022-12-09T18:39:03.001Z,57.37
2022-12-09T18:41:33.326Z,43.67
2022-12-09T18:44:04.165Z,29.93
2022-12-09T18:46:36.464Z,16.73
2022-12-09T18:49:08.643Z,10.60
2022-12-09T18:51:37.431Z,11.20
2022-12-09T18:54:06.960Z,12.73
2022-12-09T18:56:36.609Z,7.70
2022-12-09T18:59:07.020Z,8.83
2022-12-09T19:01:39.956Z,7.83
2022-12-09T19:04:14.491Z,5.30
2022-12-09T19:06:44.776Z,6.10
2022-12-09T19:09:15.072Z,6.93
2022-12-09T19:11:44.661Z,8.00
2022-12-09T19:14:14.234Z,6.50
2022-12-09T19:16:43.582Z,5.50
2022-12-09T19:19:15.322Z,6.17
2022-12-09T19:21:44.226Z,3.87
2022-12-09T19:24:18.924Z,3.70
2022-12-09T19:26:50.544Z,3.70
2022-12-09T19:29:28.087Z,4.53
2022-12-09T19:31:58.502Z,4.70
2022-12-09T19:34:29.907Z,4.03
2022-12-09T19:37:00.279Z,3.60
2022-12-09T19:39:31.440Z,3.60
2022-12-09T19:42:00.287Z,4.23
2022-12-09T19:45:01.053Z,4.87
2022-12-09T19:47:17.643Z,4.63
2022-12-09T19:49:47.266Z,7.40
2022-12-09T19:52:15.589Z,5.00
2022-12-09T19:54:43.804Z,4.67
2022-12-09T19:57:12.112Z,4.60
2022-12-09T19:59:40.374Z,4.37
2022-12-09T20:02:12.103Z,4.23
2022-12-09T20:04:50.156Z,5.43
2022-12-09T20:07:21.021Z,4.60
2022-12-09T20:09:49.682Z,4.53
2022-12-09T20:12:18.046Z,4.37
2022-12-09T20:14:46.457Z,4.70
2022-12-09T20:17:16.746Z,13.40
2022-12-09T20:19:45.161Z,10.50
2022-12-09T20:22:13.578Z,15.80
2022-12-09T20:24:44.247Z,9.50
2022-12-09T20:27:12.609Z,6.70
2022-12-09T20:29:40.826Z,5.90
2022-12-09T20:32:10.310Z,6.13
2022-12-09T20:34:38.988Z,9.90
2022-12-09T20:37:07.525Z,11.50
2022-12-09T20:39:36.835Z,13.17
2022-12-09T20:42:07.215Z,13.37
2022-12-09T20:44:36.491Z,13.07
2022-12-09T20:47:04.787Z,13.13
2022-12-09T20:49:33.038Z,9.73
2022-12-09T20:52:02.307Z,10.33
2022-12-09T20:54:30.709Z,7.93
2022-12-09T20:56:59.010Z,6.87
2022-12-09T20:59:28.955Z,8.30
2022-12-09T21:01:57.331Z,6.33
2022-12-09T21:04:26.276Z,5.70
2022-12-09T21:06:54.624Z,5.13
2022-12-09T21:09:27.170Z,5.87
2022-12-09T21:11:55.582Z,5.37
2022-12-09T21:14:29.419Z,5.70
2022-12-09T21:17:04.335Z,5.87
2022-12-09T21:19:33.240Z,6.20
2022-12-09T21:22:01.507Z,5.90
2022-12-09T21:24:29.803Z,5.73
2022-12-09T21:26:58.402Z,5.53
2022-12-09T21:29:31.691Z,5.03
2022-12-09T21:32:03.088Z,4.13
2022-12-09T21:34:31.794Z,5.27
2022-12-09T21:37:01.853Z,5.23
2022-12-09T21:39:30.217Z,6.40
2022-12-09T21:41:58.484Z,3.97
2022-12-09T21:44:28.410Z,4.93
2022-12-09T21:46:56.724Z,6.00
2022-12-09T21:49:35.181Z,7.17
2022-12-09T21:52:06.598Z,7.17
2022-12-09T21:54:34.938Z,8.00
2022-12-09T21:57:03.181Z,5.27
2022-12-09T21:59:31.606Z,3.27
2022-12-09T22:01:59.837Z,3.13
2022-12-09T22:04:29.519Z,4.70
2022-12-09T22:06:57.813Z,5.30
2022-12-09T22:09:26.109Z,7.17
2022-12-09T22:11:54.324Z,8.53
2022-12-09T22:14:22.640Z,9.27
2022-12-09T22:16:50.937Z,10.73
2022-12-09T22:19:22.152Z,10.63
2022-12-09T22:21:51.831Z,9.77
2022-12-09T22:24:20.589Z,9.57
2022-12-09T22:26:49.010Z,5.87
2022-12-09T22:29:18.804Z,5.20
2022-12-09T22:31:47.459Z,4.63
2022-12-09T22:34:17.914Z,7.00
2022-12-09T22:36:46.877Z,8.73
2022-12-09T22:39:18.477Z,9.43
2022-12-09T22:41:46.863Z,7.33
2022-12-09T22:44:17.124Z,6.20
2022-12-09T22:46:46.062Z,5.77
2022-12-09T22:49:16.374Z,4.50
2022-12-09T22:51:46.104Z,3.53
2022-12-09T22:54:16.551Z,3.90
2022-12-09T22:56:45.815Z,4.23
2022-12-09T22:59:14.980Z,4.10
2022-12-09T23:01:45.219Z,4.97
2022-12-09T23:04:14.595Z,27.57
2022-12-09T23:06:43.034Z,115.83
2022-12-09T23:09:14.440Z,109.80
2022-12-09T23:11:44.204Z,28.13
2022-12-09T23:14:13.711Z,13.17
2022-12-09T23:16:42.014Z,42.20
2022-12-09T23:19:11.252Z,10.13
2022-12-09T23:21:41.067Z,20.23
2022-12-09T23:24:16.437Z,26.53
2022-12-09T23:26:48.348Z,56.43
2022-12-09T23:29:17.819Z,42.03
2022-12-09T23:31:46.393Z,26.47
2022-12-09T23:34:15.824Z,32.07
2022-12-09T23:36:45.305Z,43.53
2022-12-09T23:39:15.731Z,63.27
2022-12-09T23:41:45.195Z,41.43
2022-12-09T23:44:17.463Z,24.97
2022-12-09T23:46:46.099Z,15.83
2022-12-09T23:49:14.415Z,9.97
2022-12-09T23:51:44.645Z,8.33
2022-12-09T23:54:15.007Z,16.30
2022-12-09T23:56:49.617Z,16.20
2022-12-09T23:59:21.445Z,17.63
